Time;durP1;ratioP1;P1;durP2;ratioP2;P2;SDS_P1;SDS_P2;PMS_P1;PMS_P2;Temp;Humidity;BMP_temperature;BMP_pressure;BME280_temperature;BME280_humidity;BME280_pressure;Samples;Min_cycle;Max_cycle;Signal;HPM_P1;HPM_P2
2022/08/18 00:01:06;;;;;;;4.30;4.00;;;26.60;99.90;;;;;;5065750;28;20229;-51
2022/08/18 00:03:34;;;;;;;3.83;3.53;;;26.60;99.90;;;;;;5065699;28;20239;-51
2022/08/18 00:06:01;;;;;;;4.20;3.90;;;26.60;99.90;;;;;;5064679;28;20201;-46
2022/08/18 00:08:28;;;;;;;4.28;3.97;;;26.60;99.90;;;;;;5063997;28;20197;-52
2022/08/18 00:10:57;;;;;;;3.83;3.53;;;26.50;99.90;;;;;;5063009;28;20668;-51
2022/08/18 00:13:24;;;;;;;4.10;3.80;;;26.60;99.90;;;;;;5064676;28;20229;-49
2022/08/18 00:15:51;;;;;;;6.72;4.75;;;26.50;99.90;;;;;;5066235;28;20213;-49
2022/08/18 00:18:19;;;;;;;4.45;4.15;;;26.60;99.90;;;;;;5069573;28;20201;-42
2022/08/18 00:20:47;;;;;;;4.10;3.90;;;26.50;99.90;;;;;;5067583;28;20192;-42
2022/08/18 00:23:14;;;;;;;5.95;3.90;;;26.50;99.90;;;;;;5066757;28;20565;-42
2022/08/18 00:25:42;;;;;;;4.10;3.80;;;26.50;99.90;;;;;;5070697;28;20189;-43
2022/08/18 00:28:09;;;;;;;4.45;4.15;;;26.50;99.90;;;;;;5069627;28;20229;-42
2022/08/18 00:30:36;;;;;;;4.80;4.50;;;26.50;99.90;;;;;;5070642;28;20599;-43
2022/08/18 00:33:03;;;;;;;4.85;4.50;;;26.50;99.90;;;;;;5070533;28;20216;-43
2022/08/18 00:35:33;;;;;;;5.13;4.72;;;26.50;99.90;;;;;;5070561;28;20284;-46
2022/08/18 00:38:03;;;;;;;4.57;4.28;;;26.50;99.90;;;;;;5068846;28;20201;-43
2022/08/18 00:40:33;;;;;;;4.45;4.15;;;26.50;99.90;;;;;;5069773;28;20200;-42
2022/08/18 00:43:03;;;;;;;5.18;4.78;;;26.50;99.90;;;;;;5067659;28;20205;-42
2022/08/18 00:45:33;;;;;;;4.35;4.05;;;26.50;99.90;;;;;;5069162;28;20196;-43
2022/08/18 00:48:00;;;;;;;3.60;3.40;;;26.50;99.90;;;;;;5069725;28;20218;-48
2022/08/18 00:50:31;;;;;;;4.07;3.85;;;26.50;99.90;;;;;;5067984;28;20720;-45
2022/08/18 00:53:04;;;;;;;3.95;3.55;;;26.50;99.90;;;;;;5068730;28;20226;-44
2022/08/18 00:55:33;;;;;;;3.80;3.50;;;26.50;99.90;;;;;;5065285;28;20320;-43
2022/08/18 00:58:05;;;;;;;4.50;4.07;;;26.50;99.90;;;;;;5063716;28;20626;-51
2022/08/18 01:00:33;;;;;;;4.03;3.75;;;26.50;99.90;;;;;;5067699;28;20652;-46
2022/08/18 01:03:06;;;;;;;3.53;3.33;;;26.50;99.90;;;;;;5068746;28;20285;-43
2022/08/18 01:05:39;;;;;;;3.95;3.65;;;26.50;99.90;;;;;;5065001;28;20732;-43
2022/08/18 01:08:13;;;;;;;3.75;3.55;;;26.50;99.90;;;;;;5067859;28;20663;-43
2022/08/18 01:10:41;;;;;;;3.60;3.40;;;26.50;99.90;;;;;;5062968;28;20696;-46
2022/08/18 01:13:08;;;;;;;3.55;3.35;;;26.50;99.90;;;;;;5068531;28;20221;-43
2022/08/18 01:15:36;;;;;;;4.05;3.75;;;26.50;99.90;;;;;;5065438;28;20289;-49
2022/08/18 01:23:47;;;;;;;4.65;4.25;;;26.40;99.90;;;;;;5071103;28;20648;-51
2022/08/18 01:26:16;;;;;;;5.75;4.07;;;26.50;99.90;;;;;;5070843;28;20181;-50
2022/08/18 01:28:45;;;;;;;4.90;4.50;;;26.40;99.90;;;;;;5066380;28;20185;-51
2022/08/18 01:31:28;;;;;;;4.65;4.25;;;26.50;99.90;;;;;;5069597;28;20189;-47
2022/08/18 01:33:56;;;;;;;4.90;4.43;;;26.40;99.90;;;;;;5064598;28;20201;-49
2022/08/18 01:36:23;;;;;;;4.93;4.47;;;26.50;99.90;;;;;;5068716;28;20245;-48
2022/08/18 01:38:53;;;;;;;5.20;4.70;;;26.40;99.90;;;;;;5064434;28;20280;-52
2022/08/18 01:41:22;;;;;;;4.75;4.03;;;26.50;99.90;;;;;;5066199;28;20221;-51
2022/08/18 01:43:49;;;;;;;4.60;3.97;;;26.50;99.90;;;;;;5065906;28;20206;-44
2022/08/18 01:46:18;;;;;;;4.57;4.18;;;26.50;99.90;;;;;;5068427;28;20732;-49
2022/08/18 01:48:47;;;;;;;4.68;4.28;;;26.50;99.90;;;;;;5065338;28;20208;-49
2022/08/18 01:51:16;;;;;;;4.40;4.00;;;26.40;99.90;;;;;;5067244;28;20656;-47
2022/08/18 01:53:43;;;;;;;5.03;4.63;;;26.50;99.90;;;;;;5065804;28;20252;-46
2022/08/18 01:56:16;;;;;;;5.43;4.93;;;26.40;99.90;;;;;;5066451;28;20209;-43
2022/08/18 01:58:46;;;;;;;5.22;4.43;;;26.50;99.90;;;;;;5069388;28;20185;-46
2022/08/18 02:01:13;;;;;;;5.38;4.88;;;26.50;99.90;;;;;;5064587;28;20197;-52
2022/08/18 02:03:44;;;;;;;5.32;4.93;;;26.50;99.90;;;;;;5065776;28;20193;-46
2022/08/18 02:06:14;;;;;;;4.97;4.57;;;26.50;99.90;;;;;;5064313;28;20280;-51
2022/08/18 02:08:41;;;;;;;5.95;4.68;;;26.50;99.90;;;;;;5066779;28;20201;-43
2022/08/18 02:11:08;;;;;;;5.90;5.07;;;26.40;99.90;;;;;;5067656;28;20193;-46
2022/08/18 02:13:37;;;;;;;5.43;4.40;;;26.40;99.90;;;;;;5067022;28;20590;-51
2022/08/18 02:16:04;;;;;;;6.78;5.15;;;26.50;99.90;;;;;;5065663;28;20209;-48
2022/08/18 02:18:37;;;;;;;5.90;5.25;;;26.50;99.90;;;;;;5064627;28;20205;-48
2022/08/18 02:21:08;;;;;;;5.72;5.13;;;26.50;99.90;;;;;;5068954;28;20621;-48
2022/08/18 02:23:35;;;;;;;5.68;4.78;;;26.50;99.90;;;;;;5068720;28;20197;-49
2022/08/18 02:26:05;;;;;;;4.85;4.45;;;26.50;99.90;;;;;;5068757;28;20649;-49
2022/08/18 02:28:32;;;;;;;5.53;4.65;;;26.40;99.90;;;;;;5069410;28;20201;-50
2022/08/18 02:31:04;;;;;;;5.35;4.82;;;26.50;99.90;;;;;;5069107;28;20197;-49
2022/08/18 02:33:31;;;;;;;5.30;4.68;;;26.40;99.90;;;;;;5066652;28;20193;-49
2022/08/18 02:35:58;;;;;;;5.57;4.95;;;26.50;99.90;;;;;;5068649;28;20694;-51
2022/08/18 02:38:25;;;;;;;5.85;4.78;;;26.50;99.90;;;;;;5066216;28;20286;-47
2022/08/18 02:40:55;;;;;;;5.93;5.32;;;26.50;99.90;;;;;;5069963;28;20247;-51
2022/08/18 02:43:23;;;;;;;6.88;5.47;;;26.50;99.90;;;;;;5066387;28;20280;-50
2022/08/18 02:45:50;;;;;;;6.28;5.70;;;26.50;99.90;;;;;;5068169;28;20193;-48
2022/08/18 02:48:21;;;;;;;7.38;5.55;;;26.50;99.90;;;;;;5064836;28;20201;-51
2022/08/18 02:50:48;;;;;;;6.28;5.68;;;26.40;99.90;;;;;;5067257;28;20297;-52
2022/08/18 02:53:21;;;;;;;6.40;5.80;;;26.40;99.90;;;;;;5066674;28;20276;-50
2022/08/18 02:55:48;;;;;;;6.40;5.40;;;26.40;99.90;;;;;;5065649;28;20541;-51
2022/08/18 02:58:15;;;;;;;8.95;5.55;;;26.40;99.90;;;;;;5066339;28;20189;-51
2022/08/18 03:00:42;;;;;;;6.97;5.63;;;26.40;99.90;;;;;;5065383;28;20224;-49
2022/08/18 03:03:09;;;;;;;7.90;5.90;;;26.40;99.90;;;;;;5066686;28;20213;-52
2022/08/18 03:05:38;;;;;;;9.38;6.00;;;26.50;99.90;;;;;;5065711;28;20181;-48
2022/08/18 03:08:05;;;;;;;6.00;5.40;;;26.40;99.90;;;;;;5066420;28;20635;-48
2022/08/18 03:10:32;;;;;;;5.80;5.20;;;26.40;99.90;;;;;;5064460;28;20196;-51
2022/08/18 03:12:59;;;;;;;6.40;5.65;;;26.40;99.90;;;;;;5067506;28;20665;-48
2022/08/18 03:15:26;;;;;;;7.43;5.97;;;26.40;99.90;;;;;;5063562;28;20251;-51
2022/08/18 03:17:53;;;;;;;6.00;5.40;;;26.40;99.90;;;;;;5066166;28;20303;-50
2022/08/18 03:20:20;;;;;;;6.13;5.25;;;26.30;99.90;;;;;;5066536;28;20259;-52
2022/08/18 03:22:49;;;;;;;5.38;4.88;;;26.40;99.90;;;;;;5067448;28;20666;-49
2022/08/18 03:25:16;;;;;;;6.10;5.30;;;26.40;99.90;;;;;;5064911;28;20645;-51
2022/08/18 03:27:44;;;;;;;6.47;5.63;;;26.30;99.90;;;;;;5067645;28;20274;-50
2022/08/18 03:30:12;;;;;;;5.70;5.05;;;26.30;99.90;;;;;;5062386;28;20292;-49
2022/08/18 03:32:38;;;;;;;5.07;4.57;;;26.30;99.90;;;;;;5064404;28;20220;-45
2022/08/18 03:35:07;;;;;;;5.90;5.05;;;26.20;99.90;;;;;;5062734;28;20255;-50
2022/08/18 03:37:34;;;;;;;5.65;5.10;;;26.20;99.90;;;;;;5068192;28;20657;-48
2022/08/18 03:40:03;;;;;;;5.15;4.65;;;26.20;99.90;;;;;;5065064;28;20217;-48
2022/08/18 03:42:30;;;;;;;4.97;4.53;;;26.20;99.90;;;;;;5066143;28;20268;-45
2022/08/18 03:44:57;;;;;;;5.90;5.25;;;26.20;99.90;;;;;;5061846;28;20284;-42
2022/08/18 03:47:26;;;;;;;4.90;4.50;;;26.20;99.90;;;;;;5065412;28;20258;-42
2022/08/18 03:49:53;;;;;;;4.60;4.20;;;26.20;99.90;;;;;;5062622;28;20201;-42
2022/08/18 03:52:20;;;;;;;5.97;5.35;;;26.10;99.90;;;;;;5065930;28;20686;-46
2022/08/18 03:54:47;;;;;;;5.60;5.00;;;26.10;99.90;;;;;;5065088;28;20200;-50
2022/08/18 03:57:15;;;;;;;7.05;5.63;;;26.10;99.90;;;;;;5066032;28;20213;-50
2022/08/18 03:59:42;;;;;;;7.45;5.07;;;26.00;99.90;;;;;;5062457;28;20255;-50
2022/08/18 04:02:10;;;;;;;6.57;5.38;;;26.00;99.90;;;;;;5063162;28;20274;-51
2022/08/18 04:04:38;;;;;;;5.75;5.10;;;26.00;99.90;;;;;;5064235;28;20287;-48
2022/08/18 04:07:10;;;;;;;7.68;5.35;;;26.00;99.90;;;;;;5065964;28;20195;-51
2022/08/18 04:09:38;;;;;;;8.48;5.72;;;26.00;99.90;;;;;;5066146;28;20667;-51
2022/08/18 04:12:11;;;;;;;5.38;4.88;;;25.90;99.90;;;;;;5060872;28;20263;-51
2022/08/18 04:14:40;;;;;;;7.35;5.25;;;25.90;99.90;;;;;;5066752;28;20660;-44
2022/08/18 04:17:08;;;;;;;8.30;5.88;;;25.90;99.90;;;;;;5065119;28;20201;-52
2022/08/18 04:19:36;;;;;;;6.65;5.60;;;25.90;99.90;;;;;;5066961;28;20326;-48
2022/08/18 04:22:05;;;;;;;8.15;6.22;;;25.90;99.90;;;;;;5064626;28;20197;-50
2022/08/18 04:24:33;;;;;;;8.07;6.22;;;25.80;99.90;;;;;;5066388;28;20205;-49
2022/08/18 04:27:03;;;;;;;11.90;7.70;;;25.80;99.90;;;;;;5064069;28;20204;-49
2022/08/18 04:29:30;;;;;;;15.80;9.20;;;25.70;99.90;;;;;;5066175;28;20205;-46
2022/08/18 04:32:01;;;;;;;10.68;7.88;;;25.70;99.90;;;;;;5063003;28;20255;-51
2022/08/18 04:34:28;;;;;;;7.38;6.00;;;25.80;99.90;;;;;;5065547;28;20189;-50
2022/08/18 04:36:55;;;;;;;6.88;6.00;;;25.80;99.90;;;;;;5065340;28;20302;-52
2022/08/18 04:39:24;;;;;;;10.15;7.03;;;25.80;99.90;;;;;;5067994;28;20228;-46
2022/08/18 04:41:52;;;;;;;8.20;6.13;;;25.90;99.90;;;;;;5063916;28;20707;-52
2022/08/18 04:44:20;;;;;;;7.82;6.47;;;25.80;99.90;;;;;;5066448;28;20229;-51
2022/08/18 04:46:51;;;;;;;6.47;5.85;;;25.80;99.90;;;;;;5062280;28;20214;-48
2022/08/18 04:49:24;;;;;;;7.80;5.97;;;25.90;99.90;;;;;;5066305;28;20185;-52
2022/08/18 04:54:40;;;;;;;12.30;8.30;;;25.90;99.90;;;;;;5065141;28;20190;-49
2022/08/18 04:57:09;;;;;;;11.85;8.15;;;25.90;99.90;;;;;;5066551;28;20209;-48
2022/08/18 04:59:36;;;;;;;9.20;7.18;;;26.00;99.90;;;;;;5065731;28;20656;-45
2022/08/18 05:02:07;;;;;;;7.85;6.55;;;26.00;99.90;;;;;;5068869;28;20621;-48
2022/08/18 05:04:36;;;;;;;7.45;5.93;;;26.00;99.90;;;;;;5070714;28;20198;-45
2022/08/18 05:07:05;;;;;;;6.93;6.03;;;26.10;99.90;;;;;;5069764;28;20205;-51
2022/08/18 05:09:32;;;;;;;6.57;5.90;;;26.10;99.90;;;;;;5068608;28;20210;-43
2022/08/18 05:11:59;;;;;;;17.33;10.63;;;26.10;99.90;;;;;;5070496;28;20220;-43
2022/08/18 05:14:26;;;;;;;19.42;13.40;;;26.10;99.90;;;;;;5067322;28;20209;-44
2022/08/18 05:16:53;;;;;;;15.23;10.30;;;26.10;99.90;;;;;;5068627;28;20268;-46
2022/08/18 05:19:22;;;;;;;12.40;8.30;;;26.10;99.90;;;;;;5067763;28;20224;-44
2022/08/18 05:21:52;;;;;;;9.80;7.55;;;26.10;99.90;;;;;;5069478;28;20548;-46
2022/08/18 05:24:20;;;;;;;6.85;6.13;;;26.10;99.90;;;;;;5069269;28;20634;-47
2022/08/18 05:26:47;;;;;;;5.45;5.03;;;26.00;99.90;;;;;;5070525;28;20243;-45
2022/08/18 05:29:16;;;;;;;5.93;5.43;;;26.10;99.90;;;;;;5068541;28;20258;-46
2022/08/18 05:31:43;;;;;;;6.35;5.72;;;26.10;99.90;;;;;;5070067;28;20208;-48
2022/08/18 05:34:10;;;;;;;7.70;6.78;;;26.10;99.90;;;;;;5069110;28;20231;-49
2022/08/18 05:37:03;;;;;;;6.95;5.90;;;26.10;99.90;;;;;;5069810;28;20246;-50
2022/08/18 05:39:37;;;;;;;5.85;5.35;;;26.10;99.90;;;;;;5067544;28;20191;-45
2022/08/18 05:42:08;;;;;;;9.63;7.25;;;26.10;99.90;;;;;;5063606;28;20261;-43
2022/08/18 05:44:40;;;;;;;8.98;7.38;;;26.10;99.90;;;;;;5067161;28;20604;-46
2022/08/18 05:47:11;;;;;;;8.13;7.32;;;26.10;99.90;;;;;;5068655;28;20177;-51
2022/08/18 05:49:39;;;;;;;5.53;5.05;;;26.10;99.90;;;;;;5070229;28;20193;-52
2022/08/18 05:52:14;;;;;;;5.93;5.43;;;26.10;99.90;;;;;;5068759;28;20281;-50
2022/08/18 05:57:35;;;;;;;4.97;4.57;;;26.20;99.90;;;;;;5065057;28;20855;-45
2022/08/18 06:00:05;;;;;;;5.80;5.25;;;26.10;99.90;;;;;;5069969;28;20197;-51
2022/08/18 06:02:46;;;;;;;9.27;6.68;;;26.10;99.90;;;;;;5066938;28;20193;-46
2022/08/18 06:05:23;;;;;;;9.15;7.28;;;26.10;99.90;;;;;;5067415;28;20212;-45
2022/08/18 06:07:56;;;;;;;6.95;6.25;;;26.10;99.90;;;;;;5063672;28;20683;-42
2022/08/18 06:10:25;;;;;;;5.47;5.07;;;26.10;99.90;;;;;;5066703;28;20200;-46
2022/08/18 06:12:55;;;;;;;9.73;7.45;;;26.10;99.90;;;;;;5065843;28;20237;-48
2022/08/18 06:15:28;;;;;;;8.52;7.13;;;26.10;99.90;;;;;;5067528;28;20202;-50
2022/08/18 06:18:31;;;;;;;8.13;6.13;;;26.10;99.90;;;;;;5064605;28;20217;-46
2022/08/18 06:21:18;;;;;;;6.82;6.20;;;26.10;99.90;;;;;;5002990;28;20199;-45
2022/08/18 06:23:55;;;;;;;13.60;6.93;;;26.10;99.90;;;;;;5001965;28;20245;-42
2022/08/18 06:26:33;;;;;;;8.02;6.20;;;26.10;99.90;;;;;;4988338;28;20198;-43
2022/08/18 06:29:15;;;;;;;6.50;5.85;;;26.10;99.90;;;;;;4988655;28;20614;-42
2022/08/18 06:31:57;;;;;;;8.48;6.95;;;26.10;99.90;;;;;;5005079;28;20202;-45
2022/08/18 06:34:39;;;;;;;5.72;5.32;;;26.10;99.90;;;;;;5003449;28;20238;-44
2022/08/18 06:37:16;;;;;;;5.13;4.72;;;26.10;99.90;;;;;;5003803;28;20212;-44
2022/08/18 06:39:47;;;;;;;6.63;6.07;;;26.20;99.90;;;;;;5005761;28;20518;-43
2022/08/18 06:42:20;;;;;;;6.57;5.97;;;26.20;99.90;;;;;;5006276;28;20702;-44
2022/08/18 06:44:50;;;;;;;8.30;6.38;;;26.20;99.90;;;;;;5002296;28;20195;-43
2022/08/18 06:47:36;;;;;;;11.48;7.35;;;26.20;99.90;;;;;;5003349;28;20195;-48
2022/08/18 06:50:08;;;;;;;6.80;6.20;;;26.30;99.90;;;;;;5001742;28;20270;-47
2022/08/18 06:52:37;;;;;;;6.45;5.85;;;26.30;99.90;;;;;;5005026;28;20271;-46
2022/08/18 06:55:10;;;;;;;6.68;5.93;;;26.30;99.90;;;;;;5034611;28;20237;-46
2022/08/18 06:57:39;;;;;;;6.22;5.63;;;26.30;99.90;;;;;;5064331;28;20688;-43
2022/08/18 07:00:10;;;;;;;5.40;4.50;;;26.40;99.90;;;;;;5064187;28;20670;-44
2022/08/18 07:02:49;;;;;;;4.70;4.35;;;26.50;99.90;;;;;;5065122;28;20198;-45
2022/08/18 07:05:19;;;;;;;5.97;5.47;;;26.50;99.90;;;;;;5064656;28;20204;-45
2022/08/18 07:08:03;;;;;;;7.05;5.55;;;26.50;99.90;;;;;;5065244;28;20206;-47
2022/08/18 07:10:35;;;;;;;6.13;5.53;;;26.60;99.90;;;;;;5063023;28;20193;-46
2022/08/18 07:13:16;;;;;;;8.32;5.97;;;26.60;99.90;;;;;;5067995;28;20233;-51
2022/08/18 07:15:44;;;;;;;11.63;7.05;;;26.60;99.90;;;;;;5066965;28;20189;-44
2022/08/18 07:18:14;;;;;;;6.07;5.57;;;26.60;99.90;;;;;;5067281;28;20213;-44
2022/08/18 07:20:48;;;;;;;7.15;5.40;;;26.60;99.90;;;;;;5066170;28;20217;-46
2022/08/18 07:23:27;;;;;;;5.32;4.93;;;26.70;99.90;;;;;;5066969;28;20217;-43
2022/08/18 07:26:04;;;;;;;4.20;3.90;;;26.70;99.90;;;;;;5065959;28;20276;-45
2022/08/18 07:28:35;;;;;;;5.82;5.20;;;26.80;99.90;;;;;;5063824;28;20706;-44
2022/08/18 07:31:19;;;;;;;5.07;4.68;;;26.80;99.90;;;;;;5066679;28;20281;-43
2022/08/18 07:33:55;;;;;;;4.28;4.00;;;26.90;99.90;;;;;;5065122;28;20190;-43
2022/08/18 07:36:25;;;;;;;4.03;3.72;;;27.00;99.90;;;;;;5066077;28;20343;-43
2022/08/18 07:38:58;;;;;;;3.58;3.38;;;27.00;99.90;;;;;;5064804;28;20275;-43
2022/08/18 07:41:31;;;;;;;3.75;3.47;;;27.10;99.90;;;;;;5064949;28;20599;-44
2022/08/18 07:44:08;;;;;;;4.25;3.95;;;27.10;99.90;;;;;;5066055;28;20732;-43
2022/08/18 07:46:51;;;;;;;4.15;3.85;;;27.10;99.90;;;;;;5067097;28;20553;-45
2022/08/18 07:49:23;;;;;;;3.95;3.75;;;27.20;99.90;;;;;;5067379;28;20695;-43
2022/08/18 07:51:55;;;;;;;4.97;4.47;;;27.30;99.90;;;;;;5065844;28;20190;-44
2022/08/18 07:54:34;;;;;;;4.30;4.00;;;27.30;99.90;;;;;;5066183;28;20197;-44
2022/08/18 07:57:12;;;;;;;4.55;4.22;;;27.30;99.90;;;;;;5064510;28;20208;-43
2022/08/18 07:59:47;;;;;;;6.28;4.93;;;27.40;99.90;;;;;;5060549;28;20197;-44
2022/08/18 08:02:27;;;;;;;10.23;4.75;;;27.50;99.90;;;;;;5062195;28;20197;-43
2022/08/18 08:05:07;;;;;;;6.82;5.63;;;27.50;99.90;;;;;;5065718;28;20205;-43
2022/08/18 08:07:45;;;;;;;6.07;5.45;;;27.60;99.90;;;;;;5066030;28;20555;-46
2022/08/18 08:10:30;;;;;;;8.00;6.30;;;27.60;99.90;;;;;;5064894;28;20266;-47
2022/08/18 08:13:12;;;;;;;8.77;6.10;;;27.70;99.90;;;;;;5061559;28;20267;-49
2022/08/18 08:15:49;;;;;;;7.22;6.45;;;27.70;99.90;;;;;;5062817;28;20645;-43
2022/08/18 08:18:23;;;;;;;5.55;5.05;;;27.80;99.90;;;;;;5067124;28;20208;-43
2022/08/18 08:20:54;;;;;;;4.18;3.97;;;27.80;99.90;;;;;;5064975;28;20185;-49
2022/08/18 08:23:27;;;;;;;4.75;4.45;;;27.90;99.90;;;;;;5063673;28;20204;-44
2022/08/18 08:26:08;;;;;;;4.22;3.58;;;28.00;99.90;;;;;;5064783;28;20268;-45
2022/08/18 08:28:46;;;;;;;5.13;4.57;;;28.00;99.90;;;;;;5062334;28;20667;-43
2022/08/18 08:31:26;;;;;;;9.35;7.00;;;28.10;99.90;;;;;;5062673;28;20280;-49
2022/08/18 08:33:58;;;;;;;6.80;6.05;;;28.10;99.90;;;;;;5061040;28;20230;-44
2022/08/18 08:36:29;;;;;;;5.68;5.28;;;28.10;99.90;;;;;;5065661;28;20277;-43
2022/08/18 08:39:02;;;;;;;8.25;7.50;;;28.20;99.90;;;;;;5067463;28;20220;-43
2022/08/18 08:41:36;;;;;;;10.95;7.63;;;28.30;99.90;;;;;;5063359;28;20193;-43
2022/08/18 08:44:09;;;;;;;9.55;7.20;;;28.30;99.90;;;;;;5078857;28;20204;-47
2022/08/18 08:46:45;;;;;;;8.18;7.10;;;28.30;99.90;;;;;;5068527;28;20243;-43
2022/08/18 08:49:30;;;;;;;6.30;5.80;;;28.40;99.90;;;;;;5064477;28;20219;-44
2022/08/18 08:52:03;;;;;;;5.53;5.03;;;28.40;99.90;;;;;;5068697;28;20300;-44
2022/08/18 08:54:37;;;;;;;7.07;6.35;;;28.60;99.90;;;;;;5064860;28;20193;-46
2022/08/18 08:57:05;;;;;;;6.30;5.80;;;28.60;99.90;;;;;;5068591;28;20209;-43
2022/08/18 08:59:36;;;;;;;7.50;6.57;;;28.70;99.90;;;;;;5066513;28;20201;-48
2022/08/18 09:02:36;;;;;;;5.93;5.25;;;28.80;99.90;;;;;;5065489;28;20189;-44
2022/08/18 09:05:08;;;;;;;8.05;6.80;;;28.90;99.90;;;;;;5063574;28;20205;-46
2022/08/18 09:07:57;;;;;;;7.40;6.70;;;29.00;99.90;;;;;;5066791;28;20265;-44
2022/08/18 09:10:49;;;;;;;7.95;7.18;;;29.10;99.90;;;;;;5067284;28;20263;-46
2022/08/18 09:13:38;;;;;;;7.80;6.70;;;29.20;99.90;;;;;;5067358;28;20288;-43
2022/08/18 09:16:28;;;;;;;8.73;7.03;;;29.30;99.50;;;;;;5066443;28;20197;-45
2022/08/18 09:19:20;;;;;;;9.32;7.03;;;29.30;99.10;;;;;;5064515;28;20259;-43
2022/08/18 09:21:52;;;;;;;5.50;5.10;;;29.40;98.80;;;;;;5067847;28;20204;-44
2022/08/18 09:24:24;;;;;;;7.15;6.45;;;29.40;98.90;;;;;;5068622;28;20197;-44
2022/08/18 09:27:12;;;;;;;11.57;7.38;;;29.50;98.80;;;;;;5068422;28;20310;-47
2022/08/18 09:29:50;;;;;;;7.45;6.70;;;29.50;98.20;;;;;;5070298;28;20188;-49
2022/08/18 09:32:52;;;;;;;7.03;6.43;;;29.50;98.20;;;;;;5069199;28;20193;-43
2022/08/18 09:35:51;;;;;;;7.50;6.50;;;29.60;98.20;;;;;;5065335;28;20258;-45
2022/08/18 09:44:08;;;;;;;10.10;6.95;;;29.80;97.90;;;;;;5067865;28;20213;-48
2022/08/18 09:46:54;;;;;;;9.73;6.32;;;29.80;97.70;;;;;;5068181;28;20298;-42
2022/08/18 09:49:45;;;;;;;7.65;6.80;;;29.90;97.60;;;;;;5071773;28;20197;-45
2022/08/18 09:52:54;;;;;;;6.93;6.43;;;30.00;97.30;;;;;;5068894;28;20195;-46
2022/08/18 09:55:51;;;;;;;8.68;7.28;;;30.00;97.20;;;;;;5066421;28;20193;-43
2022/08/18 09:58:40;;;;;;;9.05;7.03;;;30.10;97.00;;;;;;5065318;28;20538;-47
2022/08/18 10:01:39;;;;;;;7.28;5.50;;;30.10;96.90;;;;;;5066040;28;20204;-45
2022/08/18 10:04:28;;;;;;;5.07;4.78;;;30.10;96.90;;;;;;5005007;28;20192;-48
2022/08/18 10:07:15;;;;;;;5.63;5.03;;;30.30;97.00;;;;;;5061951;28;20324;-44
2022/08/18 10:09:56;;;;;;;4.68;4.28;;;30.40;97.10;;;;;;5065617;28;20248;-49
2022/08/18 10:12:42;;;;;;;4.30;4.00;;;30.40;96.70;;;;;;5061982;28;20308;-46
2022/08/18 10:15:28;;;;;;;6.07;5.57;;;30.50;96.70;;;;;;5063681;28;20250;-49
2022/08/18 10:18:17;;;;;;;6.80;6.10;;;30.50;96.20;;;;;;5063981;28;20588;-44
2022/08/18 10:20:56;;;;;;;7.43;6.32;;;30.50;95.80;;;;;;5055841;28;20225;-47
2022/08/18 10:23:44;;;;;;;10.63;5.85;;;30.40;95.60;;;;;;5068042;28;20270;-48
2022/08/18 10:26:44;;;;;;;5.97;5.47;;;30.40;95.70;;;;;;5067900;28;20276;-47
2022/08/18 10:29:58;;;;;;;4.82;4.50;;;30.50;95.70;;;;;;5065711;28;20216;-45
2022/08/18 10:32:45;;;;;;;3.92;3.72;;;30.60;95.70;;;;;;5021474;28;20251;-48
2022/08/18 10:35:51;;;;;;;3.88;3.58;;;30.60;95.70;;;;;;5068567;28;20281;-49
2022/08/18 10:38:43;;;;;;;3.38;3.17;;;30.70;95.60;;;;;;5066107;28;20280;-49
2022/08/18 10:41:20;;;;;;;5.38;4.97;;;30.80;95.40;;;;;;5064441;28;20237;-49
2022/08/18 10:43:52;;;;;;;10.18;9.10;;;30.90;95.00;;;;;;5064344;28;20242;-43
2022/08/18 10:46:23;;;;;;;10.10;8.90;;;31.00;94.50;;;;;;5068630;28;20201;-42
2022/08/18 10:49:16;;;;;;;8.07;7.28;;;31.00;94.20;;;;;;5065798;28;20181;-44
2022/08/18 10:51:56;;;;;;;6.53;5.50;;;31.00;94.20;;;;;;5067549;28;20712;-42
2022/08/18 10:54:33;;;;;;;5.05;4.55;;;31.10;94.20;;;;;;5065748;28;20192;-44
2022/08/18 10:57:12;;;;;;;5.43;4.93;;;31.10;94.20;;;;;;5067304;28;20193;-44
2022/08/18 10:59:44;;;;;;;6.60;5.43;;;31.20;94.00;;;;;;5064685;28;20205;-42
2022/08/18 11:02:34;;;;;;;4.93;4.53;;;31.30;94.00;;;;;;5068746;28;20671;-43
2022/08/18 11:05:09;;;;;;;7.63;6.75;;;31.30;94.40;;;;;;5067402;28;20190;-44
2022/08/18 11:07:41;;;;;;;7.45;6.75;;;31.40;94.40;;;;;;5065892;28;20287;-43
2022/08/18 11:10:18;;;;;;;7.72;6.35;;;31.40;94.60;;;;;;5068472;28;20193;-42
2022/08/18 11:13:04;;;;;;;5.35;4.90;;;31.40;95.40;;;;;;5066508;28;20549;-42
2022/08/18 11:15:44;;;;;;;4.78;4.38;;;31.50;95.20;;;;;;5065144;28;20217;-43
2022/08/18 11:18:29;;;;;;;5.82;4.65;;;31.60;95.30;;;;;;5067664;28;20207;-47
2022/08/18 11:21:30;;;;;;;6.43;5.80;;;31.70;95.40;;;;;;5064903;28;20296;-46
2022/08/18 11:24:11;;;;;;;5.93;5.43;;;31.80;95.50;;;;;;5070749;28;20192;-42
2022/08/18 11:26:40;;;;;;;6.32;5.75;;;31.80;95.90;;;;;;5066939;28;20270;-42
2022/08/18 11:29:19;;;;;;;5.75;5.13;;;31.80;95.60;;;;;;5065794;28;20681;-42
2022/08/18 11:31:46;;;;;;;9.68;6.05;;;31.90;95.70;;;;;;5064052;28;20696;-42
2022/08/18 11:34:16;;;;;;;6.22;5.65;;;32.00;95.60;;;;;;5063071;28;20243;-45
2022/08/18 11:36:44;;;;;;;5.35;4.90;;;31.90;95.50;;;;;;5065015;28;20304;-49
2022/08/18 11:39:13;;;;;;;7.72;6.57;;;32.00;95.50;;;;;;5066262;28;20775;-44
2022/08/18 11:41:47;;;;;;;7.57;6.20;;;32.00;95.00;;;;;;5064818;28;20235;-47
2022/08/18 11:44:19;;;;;;;5.95;5.35;;;31.90;94.80;;;;;;5065884;28;20203;-49
2022/08/18 11:46:46;;;;;;;6.50;5.93;;;31.80;94.60;;;;;;5065220;28;20564;-44
2022/08/18 11:49:17;;;;;;;6.78;6.18;;;31.80;94.50;;;;;;5065082;28;20224;-44
2022/08/18 11:51:58;;;;;;;7.90;5.93;;;31.70;94.50;;;;;;5066237;28;20728;-44
2022/08/18 11:54:38;;;;;;;48.25;9.45;;;31.70;94.50;;;;;;5064084;28;20326;-45
2022/08/18 11:57:40;;;;;;;30.85;8.25;;;31.60;94.30;;;;;;5061698;28;20584;-44
2022/08/18 12:00:37;;;;;;;7.75;6.43;;;31.50;94.10;;;;;;5055925;28;20213;-43
2022/08/18 12:03:07;;;;;;;6.53;5.97;;;31.50;93.90;;;;;;5060595;28;20193;-43
2022/08/18 12:05:45;;;;;;;8.73;5.88;;;31.50;93.80;;;;;;5058677;28;20661;-44
2022/08/18 12:08:22;;;;;;;7.60;5.93;;;31.50;94.20;;;;;;5063958;28;20188;-49
2022/08/18 12:11:06;;;;;;;8.85;6.47;;;31.60;94.10;;;;;;5061664;28;20228;-44
2022/08/18 12:13:33;;;;;;;12.02;6.68;;;31.60;94.20;;;;;;5061453;28;20224;-45
2022/08/18 12:16:18;;;;;;;7.28;6.30;;;31.60;94.00;;;;;;5073884;28;20197;-49
2022/08/18 12:18:45;;;;;;;7.18;6.25;;;31.70;94.00;;;;;;5061848;28;20216;-48
2022/08/18 12:21:12;;;;;;;8.82;6.97;;;31.70;93.90;;;;;;5065250;28;20194;-50
2022/08/18 12:23:42;;;;;;;6.85;6.25;;;31.60;93.80;;;;;;5065788;28;20530;-47
2022/08/18 12:26:10;;;;;;;7.50;6.15;;;31.60;93.70;;;;;;5065304;28;20197;-49
2022/08/18 12:28:38;;;;;;;6.65;5.38;;;31.50;93.50;;;;;;5065373;28;20193;-48
2022/08/18 12:31:07;;;;;;;10.80;6.65;;;31.40;93.40;;;;;;5066392;28;20292;-44
2022/08/18 12:33:34;;;;;;;6.00;5.40;;;31.40;93.50;;;;;;5065416;28;20181;-44
2022/08/18 12:36:01;;;;;;;8.30;6.97;;;31.40;93.60;;;;;;5065074;28;20310;-44
2022/08/18 12:38:28;;;;;;;9.40;6.50;;;31.40;93.70;;;;;;5067352;28;20373;-50
2022/08/18 12:40:55;;;;;;;9.35;5.97;;;31.40;93.60;;;;;;5066065;28;20286;-50
2022/08/18 12:43:24;;;;;;;9.25;6.05;;;31.40;93.60;;;;;;5066047;28;20201;-49
2022/08/18 12:45:51;;;;;;;9.45;6.07;;;31.40;93.50;;;;;;5062977;28;20262;-52
2022/08/18 12:48:19;;;;;;;8.50;5.93;;;31.40;93.50;;;;;;5067417;28;20193;-52
2022/08/18 12:50:46;;;;;;;6.05;5.05;;;31.40;93.40;;;;;;5065864;28;20239;-50
2022/08/18 12:53:13;;;;;;;7.63;5.50;;;31.40;93.50;;;;;;5064533;28;20197;-46
2022/08/18 12:55:43;;;;;;;5.85;5.22;;;31.40;93.90;;;;;;5064394;28;20569;-48
2022/08/18 12:58:10;;;;;;;6.20;5.60;;;31.40;93.50;;;;;;5065700;28;20193;-46
2022/08/18 13:00:40;;;;;;;8.95;6.03;;;31.40;93.40;;;;;;5065022;28;20288;-47
2022/08/18 13:03:07;;;;;;;6.47;5.82;;;31.40;92.60;;;;;;5065519;28;20220;-49
2022/08/18 13:05:36;;;;;;;5.68;5.18;;;31.40;92.70;;;;;;5066651;28;20282;-47
2022/08/18 13:08:05;;;;;;;6.70;5.95;;;31.40;92.70;;;;;;5065641;28;20200;-52
2022/08/18 13:10:33;;;;;;;6.60;5.35;;;31.50;92.50;;;;;;5066218;28;20197;-48
2022/08/18 13:13:00;;;;;;;6.40;5.55;;;31.50;92.30;;;;;;5065855;28;20229;-47
2022/08/18 13:15:27;;;;;;;6.07;5.57;;;31.50;92.20;;;;;;5064738;28;20197;-51
2022/08/18 13:17:56;;;;;;;6.70;6.05;;;31.50;92.10;;;;;;5063516;28;20280;-50
2022/08/18 13:20:23;;;;;;;6.53;5.80;;;31.60;92.20;;;;;;5061080;28;20312;-52
2022/08/18 13:22:50;;;;;;;6.32;5.65;;;31.60;92.10;;;;;;5067905;28;20300;-48
2022/08/18 13:25:17;;;;;;;5.65;5.25;;;31.60;91.80;;;;;;5067064;28;20210;-47
2022/08/18 13:27:45;;;;;;;8.55;5.32;;;31.70;91.60;;;;;;5067136;28;20556;-53
2022/08/18 13:30:14;;;;;;;10.90;6.53;;;31.70;91.40;;;;;;5065637;28;20262;-52
2022/08/18 13:32:42;;;;;;;7.20;5.70;;;31.60;90.90;;;;;;5068904;28;20288;-48
2022/08/18 13:35:11;;;;;;;8.02;5.53;;;31.60;90.90;;;;;;5064581;28;20193;-48